sensor_id;sensor_type;location;lat;lon;timestamp;noise_LAeq;noise_LA_min;noise_LA_max;noise_LA01;noise_LA95
186;Laerm;55473;48.800;9.002;2023-12-07T00:02:14;39.35;35.79;46.94;;
186;Laerm;55473;48.800;9.002;2023-12-07T00:04:39;37.86;35.33;45.04;;
186;Laerm;55473;48.800;9.002;2023-12-07T00:07:05;37.49;35.46;45.23;;
186;Laerm;55473;48.800;9.002;2023-12-07T00:09:32;43.64;35.68;58.04;;
186;Laerm;55473;48.800;9.002;2023-12-07T00:11:57;37.50;35.16;45.71;;
186;Laerm;55473;48.800;9.002;2023-12-07T00:14:23;40.42;36.09;49.12;;
186;Laerm;55473;48.800;9.002;2023-12-07T00:16:49;41.91;36.07;56.38;;
186;Laerm;55473;48.800;9.002;2023-12-07T00:19:15;38.76;35.53;48.14;;
186;Laerm;55473;48.800;9.002;2023-12-07T00:21:41;37.15;35.17;47.89;;
186;Laerm;55473;48.800;9.002;2023-12-07T00:24:07;58.31;35.32;69.19;;
186;Laerm;55473;48.800;9.002;2023-12-07T00:26:33;37.84;35.28;42.48;;
186;Laerm;55473;48.800;9.002;2023-12-07T00:28:58;39.38;35.75;48.61;;
186;Laerm;55473;48.800;9.002;2023-12-07T00:31:24;37.58;35.32;43.69;;
186;Laerm;55473;48.800;9.002;2023-12-07T00:33:50;37.23;34.91;44.59;;
186;Laerm;55473;48.800;9.002;2023-12-07T00:36:16;37.31;35.32;47.21;;
186;Laerm;55473;48.800;9.002;2023-12-07T00:38:42;38.06;35.21;53.82;;
186;Laerm;55473;48.800;9.002;2023-12-07T00:41:07;37.65;35.43;42.98;;
186;Laerm;55473;48.800;9.002;2023-12-07T00:43:33;37.75;35.14;41.82;;
186;Laerm;55473;48.800;9.002;2023-12-07T00:46:00;37.98;35.46;42.97;;
186;Laerm;55473;48.800;9.002;2023-12-07T00:48:26;38.37;35.64;43.19;;
186;Laerm;55473;48.800;9.002;2023-12-07T00:50:51;39.07;36.78;42.70;;
186;Laerm;55473;48.800;9.002;2023-12-07T00:53:17;38.30;35.42;43.29;;
186;Laerm;55473;48.800;9.002;2023-12-07T00:55:43;38.10;35.25;42.90;;
186;Laerm;55473;48.800;9.002;2023-12-07T00:58:09;37.51;35.39;43.79;;
186;Laerm;55473;48.800;9.002;2023-12-07T01:00:35;37.38;35.03;42.21;;
186;Laerm;55473;48.800;9.002;2023-12-07T01:03:02;37.62;34.98;41.61;;
186;Laerm;55473;48.800;9.002;2023-12-07T01:05:28;37.67;35.02;42.68;;
186;Laerm;55473;48.800;9.002;2023-12-07T01:07:54;38.70;35.10;57.56;;
186;Laerm;55473;48.800;9.002;2023-12-07T01:10:20;37.47;35.21;43.28;;
186;Laerm;55473;48.800;9.002;2023-12-07T01:12:46;38.01;35.35;46.53;;
186;Laerm;55473;48.800;9.002;2023-12-07T01:15:12;36.95;34.83;44.79;;
186;Laerm;55473;48.800;9.002;2023-12-07T01:17:38;37.06;34.94;42.57;;
186;Laerm;55473;48.800;9.002;2023-12-07T01:20:06;38.11;35.04;44.43;;
186;Laerm;55473;48.800;9.002;2023-12-07T01:22:42;37.63;34.95;45.35;;
186;Laerm;55473;48.800;9.002;2023-12-07T01:25:08;37.58;34.94;42.97;;
186;Laerm;55473;48.800;9.002;2023-12-07T01:27:35;36.94;35.11;45.02;;
186;Laerm;55473;48.800;9.002;2023-12-07T01:30:01;37.33;34.79;45.38;;
186;Laerm;55473;48.800;9.002;2023-12-07T01:32:27;36.80;34.97;41.45;;
186;Laerm;55473;48.800;9.002;2023-12-07T01:34:53;36.74;34.80;44.39;;
186;Laerm;55473;48.800;9.002;2023-12-07T01:37:19;36.64;34.56;41.89;;
186;Laerm;55473;48.800;9.002;2023-12-07T01:39:45;37.04;34.51;43.80;;
186;Laerm;55473;48.800;9.002;2023-12-07T01:42:10;37.31;35.15;50.84;;
186;Laerm;55473;48.800;9.002;2023-12-07T01:44:38;37.18;34.88;42.73;;
186;Laerm;55473;48.800;9.002;2023-12-07T01:47:06;36.84;34.81;42.47;;
186;Laerm;55473;48.800;9.002;2023-12-07T01:49:35;37.82;34.95;45.02;;
186;Laerm;55473;48.800;9.002;2023-12-07T01:52:02;38.53;35.80;44.71;;
186;Laerm;55473;48.800;9.002;2023-12-07T01:54:29;38.69;35.55;47.41;;
186;Laerm;55473;48.800;9.002;2023-12-07T01:56:56;41.05;35.60;62.53;;
186;Laerm;55473;48.800;9.002;2023-12-07T01:59:23;37.92;35.36;61.29;;
186;Laerm;55473;48.800;9.002;2023-12-07T02:01:49;37.45;35.30;43.26;;
186;Laerm;55473;48.800;9.002;2023-12-07T02:04:17;37.87;35.41;42.66;;
186;Laerm;55473;48.800;9.002;2023-12-07T02:06:43;41.68;36.31;47.83;;
186;Laerm;55473;48.800;9.002;2023-12-07T02:09:09;38.23;35.93;43.06;;
186;Laerm;55473;48.800;9.002;2023-12-07T02:11:35;37.76;35.23;42.71;;
186;Laerm;55473;48.800;9.002;2023-12-07T02:14:01;37.67;35.21;47.24;;
186;Laerm;55473;48.800;9.002;2023-12-07T02:16:51;37.02;35.21;44.50;;
186;Laerm;55473;48.800;9.002;2023-12-07T02:22:13;37.72;35.33;41.86;;
186;Laerm;55473;48.800;9.002;2023-12-07T02:27:41;37.80;35.59;42.92;;
186;Laerm;55473;48.800;9.002;2023-12-07T02:30:10;37.73;35.41;42.08;;
186;Laerm;55473;48.800;9.002;2023-12-07T02:32:38;37.93;35.69;43.30;;
186;Laerm;55473;48.800;9.002;2023-12-07T02:35:05;39.57;36.26;48.94;;
186;Laerm;55473;48.800;9.002;2023-12-07T02:37:40;38.66;36.24;42.50;;
186;Laerm;55473;48.800;9.002;2023-12-07T02:40:08;38.03;35.73;43.63;;
186;Laerm;55473;48.800;9.002;2023-12-07T02:42:39;37.75;35.49;43.76;;
186;Laerm;55473;48.800;9.002;2023-12-07T02:45:08;37.69;35.14;43.40;;
186;Laerm;55473;48.800;9.002;2023-12-07T02:47:35;37.76;35.79;44.00;;
186;Laerm;55473;48.800;9.002;2023-12-07T02:50:05;37.84;35.46;42.95;;
186;Laerm;55473;48.800;9.002;2023-12-07T02:52:31;38.11;35.79;45.45;;
186;Laerm;55473;48.800;9.002;2023-12-07T02:54:57;37.73;35.54;42.92;;
186;Laerm;55473;48.800;9.002;2023-12-07T02:57:23;37.73;34.87;42.53;;
186;Laerm;55473;48.800;9.002;2023-12-07T02:59:49;38.02;35.49;48.52;;
186;Laerm;55473;48.800;9.002;2023-12-07T03:02:15;42.93;35.57;55.82;;
186;Laerm;55473;48.800;9.002;2023-12-07T03:04:40;39.67;35.10;51.26;;
186;Laerm;55473;48.800;9.002;2023-12-07T03:07:07;37.77;35.42;44.64;;
186;Laerm;55473;48.800;9.002;2023-12-07T03:09:32;37.74;35.42;44.22;;
186;Laerm;55473;48.800;9.002;2023-12-07T03:11:58;37.89;35.51;45.12;;
186;Laerm;55473;48.800;9.002;2023-12-07T03:14:24;37.90;35.36;42.70;;
186;Laerm;55473;48.800;9.002;2023-12-07T03:16:50;39.17;36.01;45.57;;
186;Laerm;55473;48.800;9.002;2023-12-07T03:19:16;40.41;35.74;49.78;;
186;Laerm;55473;48.800;9.002;2023-12-07T03:21:42;38.74;35.80;43.53;;
186;Laerm;55473;48.800;9.002;2023-12-07T03:24:11;37.81;35.60;43.11;;
186;Laerm;55473;48.800;9.002;2023-12-07T03:26:37;44.12;35.77;58.85;;
186;Laerm;55473;48.800;9.002;2023-12-07T03:29:03;44.60;36.57;59.97;;
186;Laerm;55473;48.800;9.002;2023-12-07T03:31:30;38.76;35.85;49.15;;
186;Laerm;55473;48.800;9.002;2023-12-07T03:33:56;38.14;35.81;47.30;;
186;Laerm;55473;48.800;9.002;2023-12-07T03:36:23;38.43;35.77;43.95;;
186;Laerm;55473;48.800;9.002;2023-12-07T03:38:49;39.24;36.65;43.22;;
186;Laerm;55473;48.800;9.002;2023-12-07T03:41:15;40.98;36.40;58.52;;
186;Laerm;55473;48.800;9.002;2023-12-07T03:43:41;40.84;36.68;56.38;;
186;Laerm;55473;48.800;9.002;2023-12-07T03:46:07;40.05;36.47;54.13;;
186;Laerm;55473;48.800;9.002;2023-12-07T03:48:34;40.14;36.74;51.26;;
186;Laerm;55473;48.800;9.002;2023-12-07T03:51:00;39.82;36.72;45.69;;
186;Laerm;55473;48.800;9.002;2023-12-07T03:53:26;39.85;36.08;47.60;;
186;Laerm;55473;48.800;9.002;2023-12-07T03:55:52;38.17;35.93;43.98;;
186;Laerm;55473;48.800;9.002;2023-12-07T03:58:18;42.38;36.86;52.40;;
186;Laerm;55473;48.800;9.002;2023-12-07T04:00:45;41.32;36.37;50.34;;
186;Laerm;55473;48.800;9.002;2023-12-07T04:03:11;39.30;35.92;53.36;;
186;Laerm;55473;48.800;9.002;2023-12-07T04:05:38;52.00;36.30;64.60;;
186;Laerm;55473;48.800;9.002;2023-12-07T04:08:04;40.17;36.39;48.32;;
186;Laerm;55473;48.800;9.002;2023-12-07T04:10:31;40.14;36.03;46.90;;
186;Laerm;55473;48.800;9.002;2023-12-07T04:12:57;39.96;36.54;50.02;;
186;Laerm;55473;48.800;9.002;2023-12-07T04:15:23;39.13;36.42;47.60;;
186;Laerm;55473;48.800;9.002;2023-12-07T04:17:50;46.80;36.67;60.32;;
186;Laerm;55473;48.800;9.002;2023-12-07T04:20:16;41.80;36.80;48.82;;
186;Laerm;55473;48.800;9.002;2023-12-07T04:22:44;41.02;37.14;59.30;;
186;Laerm;55473;48.800;9.002;2023-12-07T04:25:11;40.23;37.15;47.01;;
186;Laerm;55473;48.800;9.002;2023-12-07T04:27:36;41.87;37.34;52.44;;
186;Laerm;55473;48.800;9.002;2023-12-07T04:30:03;44.11;38.62;55.98;;
186;Laerm;55473;48.800;9.002;2023-12-07T04:32:29;41.46;37.68;47.42;;
186;Laerm;55473;48.800;9.002;2023-12-07T04:34:55;41.59;38.39;48.11;;
186;Laerm;55473;48.800;9.002;2023-12-07T04:37:21;45.69;37.34;59.03;;
186;Laerm;55473;48.800;9.002;2023-12-07T04:39:47;43.69;37.07;57.36;;
186;Laerm;55473;48.800;9.002;2023-12-07T04:42:13;44.71;37.90;57.70;;
186;Laerm;55473;48.800;9.002;2023-12-07T04:44:39;42.10;37.33;49.15;;
186;Laerm;55473;48.800;9.002;2023-12-07T04:47:05;43.36;37.80;58.33;;
186;Laerm;55473;48.800;9.002;2023-12-07T04:49:31;48.15;39.04;59.11;;
186;Laerm;55473;48.800;9.002;2023-12-07T04:51:56;42.41;38.60;52.13;;
186;Laerm;55473;48.800;9.002;2023-12-07T04:54:22;41.60;37.56;49.51;;
186;Laerm;55473;48.800;9.002;2023-12-07T04:56:48;41.21;37.23;54.77;;
186;Laerm;55473;48.800;9.002;2023-12-07T04:59:14;41.50;37.90;47.98;;
186;Laerm;55473;48.800;9.002;2023-12-07T05:01:40;45.23;38.07;55.83;;
186;Laerm;55473;48.800;9.002;2023-12-07T05:04:06;49.90;40.99;58.44;;
186;Laerm;55473;48.800;9.002;2023-12-07T05:06:32;43.68;38.00;55.42;;
186;Laerm;55473;48.800;9.002;2023-12-07T05:08:58;41.77;37.80;49.53;;
186;Laerm;55473;48.800;9.002;2023-12-07T05:11:24;42.48;37.92;54.65;;
186;Laerm;55473;48.800;9.002;2023-12-07T05:13:50;42.75;38.11;52.71;;
186;Laerm;55473;48.800;9.002;2023-12-07T05:16:17;44.11;37.92;52.49;;
186;Laerm;55473;48.800;9.002;2023-12-07T05:18:42;45.43;38.71;58.29;;
186;Laerm;55473;48.800;9.002;2023-12-07T05:21:09;47.57;38.09;58.43;;
186;Laerm;55473;48.800;9.002;2023-12-07T05:23:36;44.04;39.13;50.11;;
186;Laerm;55473;48.800;9.002;2023-12-07T05:26:01;42.45;38.47;48.93;;
186;Laerm;55473;48.800;9.002;2023-12-07T05:28:27;43.25;38.38;54.00;;
186;Laerm;55473;48.800;9.002;2023-12-07T05:30:53;43.93;38.75;55.13;;
186;Laerm;55473;48.800;9.002;2023-12-07T05:33:19;45.54;40.44;54.99;;
186;Laerm;55473;48.800;9.002;2023-12-07T05:35:45;42.78;39.11;48.11;;
186;Laerm;55473;48.800;9.002;2023-12-07T05:38:11;51.91;40.02;62.62;;
186;Laerm;55473;48.800;9.002;2023-12-07T05:40:37;42.24;38.93;50.18;;
186;Laerm;55473;48.800;9.002;2023-12-07T05:43:03;43.82;40.36;56.54;;
186;Laerm;55473;48.800;9.002;2023-12-07T05:45:29;43.49;39.50;56.49;;
186;Laerm;55473;48.800;9.002;2023-12-07T05:47:56;45.52;40.13;56.62;;
186;Laerm;55473;48.800;9.002;2023-12-07T05:50:22;49.47;41.41;63.81;;
186;Laerm;55473;48.800;9.002;2023-12-07T05:52:48;46.00;40.38;66.00;;
186;Laerm;55473;48.800;9.002;2023-12-07T05:55:14;45.02;40.29;49.81;;
186;Laerm;55473;48.800;9.002;2023-12-07T05:57:40;45.84;41.10;56.26;;
186;Laerm;55473;48.800;9.002;2023-12-07T06:00:07;48.39;41.40;58.62;;
186;Laerm;55473;48.800;9.002;2023-12-07T06:02:35;48.85;42.10;56.93;;
186;Laerm;55473;48.800;9.002;2023-12-07T06:05:02;49.12;43.10;62.45;;
186;Laerm;55473;48.800;9.002;2023-12-07T06:07:31;45.60;40.00;56.38;;
186;Laerm;55473;48.800;9.002;2023-12-07T06:09:57;49.34;41.54;58.31;;
186;Laerm;55473;48.800;9.002;2023-12-07T06:12:23;45.99;40.69;58.50;;
186;Laerm;55473;48.800;9.002;2023-12-07T06:14:49;46.96;41.17;67.50;;
186;Laerm;55473;48.800;9.002;2023-12-07T06:17:15;50.07;41.97;62.80;;
186;Laerm;55473;48.800;9.002;2023-12-07T06:19:41;47.18;41.67;58.20;;
186;Laerm;55473;48.800;9.002;2023-12-07T06:22:08;46.85;40.56;62.69;;
186;Laerm;55473;48.800;9.002;2023-12-07T06:24:34;47.22;41.74;54.78;;
186;Laerm;55473;48.800;9.002;2023-12-07T06:27:02;47.15;42.04;53.90;;
186;Laerm;55473;48.800;9.002;2023-12-07T06:29:28;48.00;41.16;60.34;;
186;Laerm;55473;48.800;9.002;2023-12-07T06:31:55;47.57;41.82;65.05;;
186;Laerm;55473;48.800;9.002;2023-12-07T06:34:21;49.55;41.76;70.33;;
186;Laerm;55473;48.800;9.002;2023-12-07T06:36:47;54.97;42.26;66.13;;
186;Laerm;55473;48.800;9.002;2023-12-07T06:39:13;46.73;41.15;56.63;;
186;Laerm;55473;48.800;9.002;2023-12-07T06:41:42;49.03;41.21;60.50;;
186;Laerm;55473;48.800;9.002;2023-12-07T06:44:08;50.67;42.47;65.54;;
186;Laerm;55473;48.800;9.002;2023-12-07T06:46:34;50.50;43.17;69.71;;
186;Laerm;55473;48.800;9.002;2023-12-07T06:49:00;48.97;42.02;58.31;;
186;Laerm;55473;48.800;9.002;2023-12-07T06:51:25;45.90;41.25;57.41;;
186;Laerm;55473;48.800;9.002;2023-12-07T06:53:52;44.79;39.55;55.14;;
186;Laerm;55473;48.800;9.002;2023-12-07T06:56:18;46.22;41.37;57.37;;
186;Laerm;55473;48.800;9.002;2023-12-07T06:58:43;48.10;41.59;62.60;;
186;Laerm;55473;48.800;9.002;2023-12-07T07:01:09;46.82;41.95;62.61;;
186;Laerm;55473;48.800;9.002;2023-12-07T07:03:35;47.16;40.86;61.33;;
186;Laerm;55473;48.800;9.002;2023-12-07T07:06:01;49.01;40.88;61.63;;
186;Laerm;55473;48.800;9.002;2023-12-07T07:08:27;46.24;40.47;61.60;;
186;Laerm;55473;48.800;9.002;2023-12-07T07:10:53;47.87;40.46;61.79;;
186;Laerm;55473;48.800;9.002;2023-12-07T07:13:19;45.87;41.32;58.46;;
186;Laerm;55473;48.800;9.002;2023-12-07T07:15:46;45.81;42.06;56.16;;
186;Laerm;55473;48.800;9.002;2023-12-07T07:18:13;50.23;44.52;62.02;;
186;Laerm;55473;48.800;9.002;2023-12-07T07:20:40;48.06;43.24;63.92;;
186;Laerm;55473;48.800;9.002;2023-12-07T07:23:06;55.17;42.29;64.82;;
186;Laerm;55473;48.800;9.002;2023-12-07T07:25:33;55.07;41.58;67.10;;
186;Laerm;55473;48.800;9.002;2023-12-07T07:28:00;46.86;40.77;59.10;;
186;Laerm;55473;48.800;9.002;2023-12-07T07:30:26;46.83;42.36;56.75;;
186;Laerm;55473;48.800;9.002;2023-12-07T07:32:52;46.91;42.08;54.11;;
186;Laerm;55473;48.800;9.002;2023-12-07T07:35:18;49.31;41.99;59.53;;
186;Laerm;55473;48.800;9.002;2023-12-07T07:37:44;46.83;42.61;61.66;;
186;Laerm;55473;48.800;9.002;2023-12-07T07:40:11;45.75;41.08;59.06;;
186;Laerm;55473;48.800;9.002;2023-12-07T07:42:38;47.38;42.30;62.42;;
186;Laerm;55473;48.800;9.002;2023-12-07T07:45:07;46.98;42.49;60.68;;
186;Laerm;55473;48.800;9.002;2023-12-07T07:47:33;48.55;41.54;59.27;;
186;Laerm;55473;48.800;9.002;2023-12-07T07:49:59;46.26;41.26;53.01;;
186;Laerm;55473;48.800;9.002;2023-12-07T07:52:34;47.42;41.01;59.53;;
186;Laerm;55473;48.800;9.002;2023-12-07T07:55:03;46.70;41.19;59.38;;
186;Laerm;55473;48.800;9.002;2023-12-07T07:57:30;45.99;41.27;59.24;;
186;Laerm;55473;48.800;9.002;2023-12-07T07:59:57;47.75;42.44;69.96;;
186;Laerm;55473;48.800;9.002;2023-12-07T08:02:23;49.95;41.66;65.01;;
186;Laerm;55473;48.800;9.002;2023-12-07T08:04:49;47.04;41.38;60.45;;
186;Laerm;55473;48.800;9.002;2023-12-07T08:07:18;46.92;41.41;58.97;;
186;Laerm;55473;48.800;9.002;2023-12-07T08:09:44;47.04;41.92;66.42;;
186;Laerm;55473;48.800;9.002;2023-12-07T08:12:10;47.16;41.46;63.58;;
186;Laerm;55473;48.800;9.002;2023-12-07T08:14:36;48.82;43.07;57.52;;
186;Laerm;55473;48.800;9.002;2023-12-07T08:17:03;48.06;41.57;64.92;;
186;Laerm;55473;48.800;9.002;2023-12-07T08:19:29;52.99;41.71;65.41;;
186;Laerm;55473;48.800;9.002;2023-12-07T08:21:55;46.63;41.72;58.59;;
186;Laerm;55473;48.800;9.002;2023-12-07T08:24:21;55.20;41.51;66.91;;
186;Laerm;55473;48.800;9.002;2023-12-07T08:26:48;45.86;40.87;59.75;;
186;Laerm;55473;48.800;9.002;2023-12-07T08:29:13;48.90;41.28;60.90;;
186;Laerm;55473;48.800;9.002;2023-12-07T08:31:43;46.74;40.49;61.63;;
186;Laerm;55473;48.800;9.002;2023-12-07T08:34:09;47.06;41.41;59.08;;
186;Laerm;55473;48.800;9.002;2023-12-07T08:36:35;48.44;40.08;62.06;;
186;Laerm;55473;48.800;9.002;2023-12-07T08:39:01;45.94;39.99;61.90;;
186;Laerm;55473;48.800;9.002;2023-12-07T08:41:27;46.26;39.26;66.73;;
186;Laerm;55473;48.800;9.002;2023-12-07T08:43:53;46.24;40.33;61.12;;
186;Laerm;55473;48.800;9.002;2023-12-07T08:46:19;47.60;39.27;69.28;;
186;Laerm;55473;48.800;9.002;2023-12-07T08:48:45;48.68;39.28;60.27;;
186;Laerm;55473;48.800;9.002;2023-12-07T08:51:10;46.16;38.85;58.84;;
186;Laerm;55473;48.800;9.002;2023-12-07T08:53:38;43.73;37.71;55.55;;
186;Laerm;55473;48.800;9.002;2023-12-07T08:56:04;43.92;38.60;63.40;;
186;Laerm;55473;48.800;9.002;2023-12-07T08:58:33;47.16;39.53;65.26;;
186;Laerm;55473;48.800;9.002;2023-12-07T09:00:59;47.07;39.11;63.40;;
186;Laerm;55473;48.800;9.002;2023-12-07T09:03:25;45.74;39.53;64.18;;
186;Laerm;55473;48.800;9.002;2023-12-07T09:05:54;47.46;39.30;61.07;;
186;Laerm;55473;48.800;9.002;2023-12-07T09:08:20;50.30;38.69;75.76;;
186;Laerm;55473;48.800;9.002;2023-12-07T09:10:46;43.82;39.36;56.19;;
186;Laerm;55473;48.800;9.002;2023-12-07T09:13:12;44.15;39.01;55.36;;
186;Laerm;55473;48.800;9.002;2023-12-07T09:15:38;45.97;38.72;60.69;;
186;Laerm;55473;48.800;9.002;2023-12-07T09:18:03;47.99;39.23;63.35;;
186;Laerm;55473;48.800;9.002;2023-12-07T09:20:29;44.36;38.09;56.00;;
186;Laerm;55473;48.800;9.002;2023-12-07T09:22:56;42.67;38.46;57.41;;
186;Laerm;55473;48.800;9.002;2023-12-07T09:25:22;42.34;38.07;54.21;;
186;Laerm;55473;48.800;9.002;2023-12-07T09:27:48;45.22;40.17;64.65;;
186;Laerm;55473;48.800;9.002;2023-12-07T09:30:14;45.25;38.33;66.51;;
186;Laerm;55473;48.800;9.002;2023-12-07T09:32:41;44.77;38.85;61.63;;
186;Laerm;55473;48.800;9.002;2023-12-07T09:35:09;44.94;38.57;58.94;;
186;Laerm;55473;48.800;9.002;2023-12-07T09:37:45;46.88;39.73;58.22;;
186;Laerm;55473;48.800;9.002;2023-12-07T09:40:22;43.47;37.83;52.96;;
186;Laerm;55473;48.800;9.002;2023-12-07T09:42:49;54.55;39.87;67.81;;
186;Laerm;55473;48.800;9.002;2023-12-07T09:45:17;45.01;39.04;56.43;;
186;Laerm;55473;48.800;9.002;2023-12-07T09:47:49;47.54;39.18;58.87;;
186;Laerm;55473;48.800;9.002;2023-12-07T09:50:22;43.16;38.59;54.35;;
186;Laerm;55473;48.800;9.002;2023-12-07T09:52:49;43.00;38.13;56.64;;
186;Laerm;55473;48.800;9.002;2023-12-07T09:55:18;42.96;38.18;54.18;;
186;Laerm;55473;48.800;9.002;2023-12-07T09:57:46;44.04;37.95;53.80;;
186;Laerm;55473;48.800;9.002;2023-12-07T10:00:12;46.01;39.01;57.29;;
186;Laerm;55473;48.800;9.002;2023-12-07T10:02:44;45.57;37.65;63.22;;
186;Laerm;55473;48.800;9.002;2023-12-07T10:05:12;44.25;37.62;59.71;;
186;Laerm;55473;48.800;9.002;2023-12-07T10:07:49;44.96;37.65;58.57;;
186;Laerm;55473;48.800;9.002;2023-12-07T10:10:18;45.31;37.68;63.10;;
186;Laerm;55473;48.800;9.002;2023-12-07T10:12:55;44.67;38.54;60.39;;
186;Laerm;55473;48.800;9.002;2023-12-07T10:15:23;48.20;39.59;71.68;;
186;Laerm;55473;48.800;9.002;2023-12-07T10:17:53;48.96;40.43;60.14;;
186;Laerm;55473;48.800;9.002;2023-12-07T10:20:22;44.95;37.71;53.62;;
186;Laerm;55473;48.800;9.002;2023-12-07T10:23:05;45.04;38.30;62.38;;
186;Laerm;55473;48.800;9.002;2023-12-07T10:25:40;42.99;37.39;55.46;;
186;Laerm;55473;48.800;9.002;2023-12-07T10:28:10;44.70;37.82;55.50;;
186;Laerm;55473;48.800;9.002;2023-12-07T10:30:40;46.74;38.69;75.46;;
186;Laerm;55473;48.800;9.002;2023-12-07T10:33:07;42.72;37.38;57.61;;
186;Laerm;55473;48.800;9.002;2023-12-07T10:35:39;43.19;37.85;58.64;;
186;Laerm;55473;48.800;9.002;2023-12-07T10:38:06;45.62;37.95;57.23;;
186;Laerm;55473;48.800;9.002;2023-12-07T10:40:32;41.97;36.89;62.46;;
186;Laerm;55473;48.800;9.002;2023-12-07T10:42:58;43.82;37.95;53.48;;
186;Laerm;55473;48.800;9.002;2023-12-07T10:45:30;45.16;37.51;60.08;;
186;Laerm;55473;48.800;9.002;2023-12-07T10:48:06;44.96;38.07;55.82;;
186;Laerm;55473;48.800;9.002;2023-12-07T10:50:41;47.27;39.28;73.44;;
186;Laerm;55473;48.800;9.002;2023-12-07T10:53:18;43.01;37.63;60.26;;
186;Laerm;55473;48.800;9.002;2023-12-07T10:56:00;44.68;37.85;55.52;;
186;Laerm;55473;48.800;9.002;2023-12-07T10:58:26;46.54;41.89;64.32;;
186;Laerm;55473;48.800;9.002;2023-12-07T11:00:53;52.26;40.08;65.84;;
186;Laerm;55473;48.800;9.002;2023-12-07T11:03:21;57.41;39.98;65.10;;
186;Laerm;55473;48.800;9.002;2023-12-07T11:05:50;57.57;41.17;65.33;;
186;Laerm;55473;48.800;9.002;2023-12-07T11:08:44;43.57;38.09;61.85;;
186;Laerm;55473;48.800;9.002;2023-12-07T11:11:43;45.33;37.84;65.95;;
186;Laerm;55473;48.800;9.002;2023-12-07T11:14:14;45.92;38.61;60.01;;
186;Laerm;55473;48.800;9.002;2023-12-07T11:16:43;47.81;38.12;71.35;;
186;Laerm;55473;48.800;9.002;2023-12-07T11:22:11;44.22;37.11;59.79;;
186;Laerm;55473;48.800;9.002;2023-12-07T11:24:38;51.42;37.91;78.48;;
186;Laerm;55473;48.800;9.002;2023-12-07T11:27:04;52.85;38.17;75.58;;
186;Laerm;55473;48.800;9.002;2023-12-07T11:29:31;52.92;39.61;78.99;;
186;Laerm;55473;48.800;9.002;2023-12-07T11:32:02;43.36;37.95;59.83;;
186;Laerm;55473;48.800;9.002;2023-12-07T11:34:43;48.59;39.25;63.67;;
186;Laerm;55473;48.800;9.002;2023-12-07T11:37:11;45.33;38.99;61.29;;
186;Laerm;55473;48.800;9.002;2023-12-07T11:39:41;44.35;37.44;65.61;;
186;Laerm;55473;48.800;9.002;2023-12-07T11:42:18;50.04;39.81;78.39;;
186;Laerm;55473;48.800;9.002;2023-12-07T11:44:48;48.86;42.36;66.15;;
186;Laerm;55473;48.800;9.002;2023-12-07T11:47:20;49.37;39.57;66.66;;
186;Laerm;55473;48.800;9.002;2023-12-07T11:49:47;48.83;39.80;71.47;;
186;Laerm;55473;48.800;9.002;2023-12-07T11:52:20;47.68;37.62;71.44;;
186;Laerm;55473;48.800;9.002;2023-12-07T11:54:50;46.28;40.44;66.42;;
186;Laerm;55473;48.800;9.002;2023-12-07T11:57:17;46.92;39.12;63.90;;
186;Laerm;55473;48.800;9.002;2023-12-07T11:59:46;50.97;39.02;70.11;;
186;Laerm;55473;48.800;9.002;2023-12-07T12:02:15;48.88;40.47;69.53;;
186;Laerm;55473;48.800;9.002;2023-12-07T12:04:41;49.08;41.35;62.87;;
186;Laerm;55473;48.800;9.002;2023-12-07T12:07:07;45.85;40.22;57.44;;
186;Laerm;55473;48.800;9.002;2023-12-07T12:09:33;49.00;40.55;63.20;;
186;Laerm;55473;48.800;9.002;2023-12-07T12:12:00;51.36;42.35;68.11;;
186;Laerm;55473;48.800;9.002;2023-12-07T12:14:27;46.83;40.69;62.17;;
186;Laerm;55473;48.800;9.002;2023-12-07T12:16:54;48.63;39.23;65.99;;
186;Laerm;55473;48.800;9.002;2023-12-07T12:19:22;48.01;40.31;63.92;;
186;Laerm;55473;48.800;9.002;2023-12-07T12:21:50;46.18;39.06;69.63;;
186;Laerm;55473;48.800;9.002;2023-12-07T12:24:15;48.12;39.08;66.37;;
186;Laerm;55473;48.800;9.002;2023-12-07T12:26:42;44.77;39.84;57.15;;
186;Laerm;55473;48.800;9.002;2023-12-07T12:29:10;49.16;39.80;64.86;;
186;Laerm;55473;48.800;9.002;2023-12-07T12:31:38;51.49;40.11;76.79;;
186;Laerm;55473;48.800;9.002;2023-12-07T12:34:07;48.28;39.56;66.44;;
186;Laerm;55473;48.800;9.002;2023-12-07T12:36:38;44.43;39.30;58.20;;
186;Laerm;55473;48.800;9.002;2023-12-07T12:39:03;44.91;39.14;59.90;;
186;Laerm;55473;48.800;9.002;2023-12-07T12:41:34;45.90;39.92;60.24;;
186;Laerm;55473;48.800;9.002;2023-12-07T12:44:00;46.56;40.98;59.27;;
186;Laerm;55473;48.800;9.002;2023-12-07T12:46:26;47.42;39.28;58.76;;
186;Laerm;55473;48.800;9.002;2023-12-07T12:48:56;50.16;39.78;74.39;;
186;Laerm;55473;48.800;9.002;2023-12-07T12:51:28;45.06;40.73;62.68;;
186;Laerm;55473;48.800;9.002;2023-12-07T12:53:57;44.44;38.76;56.95;;
186;Laerm;55473;48.800;9.002;2023-12-07T12:56:23;45.55;39.36;58.13;;
186;Laerm;55473;48.800;9.002;2023-12-07T12:58:51;45.34;39.37;60.47;;
186;Laerm;55473;48.800;9.002;2023-12-07T13:01:18;44.27;38.51;58.70;;
186;Laerm;55473;48.800;9.002;2023-12-07T13:03:44;47.32;38.76;63.04;;
186;Laerm;55473;48.800;9.002;2023-12-07T13:06:14;46.47;39.04;60.12;;
186;Laerm;55473;48.800;9.002;2023-12-07T13:08:42;45.28;38.62;56.61;;
186;Laerm;55473;48.800;9.002;2023-12-07T13:11:09;44.30;38.20;63.05;;
186;Laerm;55473;48.800;9.002;2023-12-07T13:13:35;48.55;40.35;69.47;;
186;Laerm;55473;48.800;9.002;2023-12-07T13:16:05;44.59;37.87;59.08;;
186;Laerm;55473;48.800;9.002;2023-12-07T13:18:31;48.50;40.03;65.97;;
186;Laerm;55473;48.800;9.002;2023-12-07T13:20:57;45.14;39.57;65.31;;
186;Laerm;55473;48.800;9.002;2023-12-07T13:23:23;43.73;39.57;68.60;;
186;Laerm;55473;48.800;9.002;2023-12-07T13:25:48;44.52;39.05;63.81;;
186;Laerm;55473;48.800;9.002;2023-12-07T13:28:14;60.33;39.11;94.41;;
186;Laerm;55473;48.800;9.002;2023-12-07T13:30:40;46.03;39.90;60.60;;
186;Laerm;55473;48.800;9.002;2023-12-07T13:33:06;48.08;39.58;59.32;;
186;Laerm;55473;48.800;9.002;2023-12-07T13:35:35;45.89;38.48;58.92;;
186;Laerm;55473;48.800;9.002;2023-12-07T13:38:01;43.22;38.71;54.40;;
186;Laerm;55473;48.800;9.002;2023-12-07T13:40:27;44.05;39.28;57.71;;
186;Laerm;55473;48.800;9.002;2023-12-07T13:42:53;45.29;40.30;63.75;;
186;Laerm;55473;48.800;9.002;2023-12-07T13:45:19;46.63;40.67;56.20;;
186;Laerm;55473;48.800;9.002;2023-12-07T13:47:45;43.76;39.02;56.58;;
186;Laerm;55473;48.800;9.002;2023-12-07T13:50:11;44.26;39.84;54.12;;
186;Laerm;55473;48.800;9.002;2023-12-07T13:52:38;47.79;39.81;60.99;;
186;Laerm;55473;48.800;9.002;2023-12-07T13:55:05;45.59;40.99;60.13;;
186;Laerm;55473;48.800;9.002;2023-12-07T13:57:30;48.94;39.27;67.86;;
186;Laerm;55473;48.800;9.002;2023-12-07T13:59:57;45.88;39.56;59.52;;
186;Laerm;55473;48.800;9.002;2023-12-07T14:02:23;46.95;40.13;57.99;;
186;Laerm;55473;48.800;9.002;2023-12-07T14:04:50;43.09;38.68;54.69;;
186;Laerm;55473;48.800;9.002;2023-12-07T14:07:18;42.41;38.25;54.10;;
186;Laerm;55473;48.800;9.002;2023-12-07T14:09:48;56.34;37.90;66.57;;
186;Laerm;55473;48.800;9.002;2023-12-07T14:12:15;46.58;38.96;64.47;;
186;Laerm;55473;48.800;9.002;2023-12-07T14:14:42;46.53;39.36;61.44;;
186;Laerm;55473;48.800;9.002;2023-12-07T14:17:10;48.41;40.86;60.80;;
186;Laerm;55473;48.800;9.002;2023-12-07T14:19:37;47.56;39.61;62.62;;